CheckWX is a tool to help pilots better visualize weather data.  It is not intended as a substitute for an official pre-flight weather briefing.

01:53:15 UTC

LELN TAF
Leon Airport
León, Spain
TAF LELN 231700Z 2318/2403 VRB04KT CAVOK

Feb-23@
18:00 UTC

Feb-23 @ 18:00 UTC

Feb-24@
03:00 UTC

Feb-24 @ 03:00 UTC

TAF LELN 231700Z 2318/2403 VRB04KT CAVOK
Wind
  • Variable at 4 KTS
Conditions
No significant weather
Cloud Levels
  • No significant clouds